createdAt,value
2018-07-14T00:01:44.189Z,16.77
2018-07-14T00:04:12.284Z,13.93
2018-07-14T00:06:40.368Z,16.57
2018-07-14T00:09:08.444Z,14.47
2018-07-14T00:11:36.528Z,12.50
2018-07-14T00:14:04.616Z,12.90
2018-07-14T00:16:32.713Z,13.07
2018-07-14T00:19:00.857Z,13.33
2018-07-14T00:21:29.048Z,14.83
2018-07-14T00:23:57.197Z,13.57
2018-07-14T00:26:25.323Z,16.53
2018-07-14T00:28:53.642Z,14.17
2018-07-14T00:31:21.957Z,17.93
2018-07-14T00:33:50.204Z,15.13
2018-07-14T00:36:18.411Z,13.37
2018-07-14T00:38:46.612Z,15.17
2018-07-14T00:41:14.767Z,15.60
2018-07-14T00:43:42.854Z,13.47
2018-07-14T00:46:11.020Z,15.03
2018-07-14T00:48:39.064Z,14.23
2018-07-14T00:51:07.149Z,15.13
2018-07-14T00:53:35.241Z,13.43
2018-07-14T00:56:03.330Z,13.67
2018-07-14T00:58:31.497Z,15.23
2018-07-14T01:00:59.566Z,18.43
2018-07-14T01:03:27.624Z,13.87
2018-07-14T01:05:55.778Z,15.93
2018-07-14T01:08:23.810Z,15.37
2018-07-14T01:10:51.884Z,13.00
2018-07-14T01:13:19.951Z,13.07
2018-07-14T01:15:48.389Z,13.80
2018-07-14T01:18:16.480Z,16.47
2018-07-14T01:20:44.514Z,14.87
2018-07-14T01:23:12.584Z,14.87
2018-07-14T01:25:40.676Z,15.00
2018-07-14T01:28:08.751Z,15.67
2018-07-14T01:30:36.835Z,14.13
2018-07-14T01:33:04.986Z,14.50
2018-07-14T01:35:33.035Z,14.70
2018-07-14T01:38:01.106Z,14.17
2018-07-14T01:40:29.188Z,14.23
2018-07-14T01:42:57.940Z,14.63
2018-07-14T01:45:26.255Z,16.37
2018-07-14T01:47:54.339Z,15.17
2018-07-14T01:50:22.387Z,19.40
2018-07-14T01:52:50.459Z,32.30
2018-07-14T01:55:18.538Z,15.10
2018-07-14T01:57:46.627Z,15.40
2018-07-14T02:00:14.687Z,16.37
2018-07-14T02:02:42.742Z,14.57
2018-07-14T02:05:10.827Z,16.13
2018-07-14T02:07:38.883Z,14.43
2018-07-14T02:10:07.169Z,16.93
2018-07-14T02:12:35.251Z,17.43
2018-07-14T02:15:03.367Z,16.80
2018-07-14T02:17:31.427Z,14.07
2018-07-14T02:19:59.583Z,15.43
2018-07-14T02:22:27.680Z,16.40
2018-07-14T02:24:55.878Z,15.10
2018-07-14T02:27:24.168Z,14.93
2018-07-14T02:29:52.415Z,16.50
2018-07-14T02:32:20.892Z,17.07
2018-07-14T02:34:49.041Z,16.47
2018-07-14T02:37:17.232Z,15.10
2018-07-14T02:39:45.366Z,19.20
2018-07-14T02:42:13.534Z,16.30
2018-07-14T02:44:41.633Z,17.97
2018-07-14T02:47:09.728Z,15.80
2018-07-14T02:49:37.784Z,14.57
2018-07-14T02:52:06.859Z,15.97
2018-07-14T02:54:34.916Z,14.20
2018-07-14T02:57:03.437Z,15.60
2018-07-14T02:59:31.514Z,15.07
2018-07-14T03:01:59.650Z,15.53
2018-07-14T03:04:27.805Z,16.03
2018-07-14T03:06:56.019Z,15.97
2018-07-14T03:09:24.300Z,15.33
2018-07-14T03:11:52.539Z,16.37
2018-07-14T03:14:21.131Z,16.73
2018-07-14T03:16:49.311Z,14.53
2018-07-14T03:19:17.462Z,17.30
2018-07-14T03:21:45.552Z,16.30
2018-07-14T03:24:13.691Z,15.97
2018-07-14T03:26:41.755Z,16.63
2018-07-14T03:29:09.831Z,17.47
2018-07-14T03:31:37.896Z,18.77
2018-07-14T03:34:06.129Z,15.53
2018-07-14T03:36:34.228Z,15.53
2018-07-14T03:39:02.288Z,15.23
2018-07-14T03:41:30.494Z,15.83
2018-07-14T03:43:58.639Z,17.30
2018-07-14T03:46:26.761Z,15.93
2018-07-14T03:48:54.931Z,16.57
2018-07-14T03:51:22.975Z,15.97
2018-07-14T03:53:51.035Z,17.70
2018-07-14T03:56:19.135Z,16.70
2018-07-14T03:58:47.175Z,16.93
2018-07-14T04:01:15.299Z,17.13
2018-07-14T04:03:43.356Z,18.40
2018-07-14T04:06:11.583Z,16.20
2018-07-14T04:08:39.643Z,16.73
2018-07-14T04:11:07.896Z,17.67
2018-07-14T04:13:36.194Z,16.63
2018-07-14T04:16:04.367Z,15.43
2018-07-14T04:18:32.570Z,14.87
2018-07-14T04:21:00.637Z,16.50
2018-07-14T04:23:28.695Z,16.23
2018-07-14T04:25:56.857Z,18.07
2018-07-14T04:28:25.119Z,16.43
2018-07-14T04:30:53.348Z,15.77
2018-07-14T04:33:21.518Z,17.57
2018-07-14T04:35:49.686Z,14.80
2018-07-14T04:38:17.875Z,17.57
2018-07-14T04:40:45.979Z,16.67
2018-07-14T04:43:14.718Z,16.47
2018-07-14T04:45:42.780Z,15.33
2018-07-14T04:48:11.431Z,16.43
2018-07-14T04:50:39.496Z,16.27
2018-07-14T04:53:07.610Z,15.27
2018-07-14T04:55:35.679Z,15.43
2018-07-14T04:58:03.779Z,16.20
2018-07-14T05:00:31.826Z,14.87
2018-07-14T05:02:59.886Z,14.53
2018-07-14T05:05:27.975Z,15.53
2018-07-14T05:07:56.056Z,13.10
2018-07-14T05:10:24.179Z,12.37
2018-07-14T05:12:52.234Z,12.60
2018-07-14T05:15:20.413Z,11.57
2018-07-14T05:17:48.491Z,11.22
2018-07-14T05:20:16.555Z,12.93
2018-07-14T05:22:44.607Z,11.88
2018-07-14T05:25:12.693Z,11.68
2018-07-14T05:27:40.776Z,10.40
2018-07-14T05:30:08.818Z,10.78
2018-07-14T05:32:36.871Z,8.83
2018-07-14T05:35:05.296Z,8.83
2018-07-14T05:37:33.352Z,9.83
2018-07-14T05:40:01.412Z,8.88
2018-07-14T05:42:29.694Z,9.73
2018-07-14T05:44:57.802Z,13.75
2018-07-14T05:47:25.874Z,10.70
2018-07-14T05:49:53.948Z,8.38
2018-07-14T05:52:22.466Z,9.28
2018-07-14T05:54:50.507Z,9.88
2018-07-14T05:57:18.563Z,8.90
2018-07-14T05:59:46.740Z,8.80
2018-07-14T06:02:14.815Z,9.08
2018-07-14T06:04:42.867Z,7.22
2018-07-14T06:07:10.932Z,7.97
2018-07-14T06:09:39.050Z,7.95
2018-07-14T06:12:07.100Z,7.12
2018-07-14T06:14:35.147Z,7.12
2018-07-14T06:17:03.197Z,7.95
2018-07-14T06:19:31.266Z,7.05
2018-07-14T06:21:59.303Z,7.28
2018-07-14T06:24:27.491Z,7.70
2018-07-14T06:26:55.539Z,6.85
2018-07-14T06:29:24.380Z,9.93
2018-07-14T06:31:52.514Z,8.68
2018-07-14T06:34:20.550Z,6.85
2018-07-14T06:36:48.643Z,6.95
2018-07-14T06:39:16.765Z,6.53
2018-07-14T06:41:44.832Z,6.62
2018-07-14T06:44:12.935Z,7.10
2018-07-14T06:46:40.974Z,5.28
2018-07-14T06:49:09.116Z,5.30
2018-07-14T06:51:37.216Z,5.70
2018-07-14T06:54:05.263Z,4.87
2018-07-14T06:56:33.375Z,5.87
2018-07-14T06:59:01.452Z,7.85
2018-07-14T07:01:29.760Z,6.25
2018-07-14T07:03:57.991Z,5.33
2018-07-14T07:06:26.139Z,5.05
2018-07-14T07:08:54.203Z,5.92
2018-07-14T07:11:22.247Z,6.67
2018-07-14T07:13:50.756Z,4.97
2018-07-14T07:16:18.743Z,5.20
2018-07-14T07:18:46.782Z,8.05
2018-07-14T07:21:15.006Z,5.28
2018-07-14T07:23:43.303Z,6.22
2018-07-14T07:26:11.350Z,5.58
2018-07-14T07:28:39.453Z,6.40
2018-07-14T07:31:07.520Z,5.15
2018-07-14T07:33:35.624Z,5.70
2018-07-14T07:36:03.676Z,5.50
2018-07-14T07:38:31.760Z,6.25
2018-07-14T07:40:59.824Z,6.55
2018-07-14T07:43:27.863Z,6.08
2018-07-14T07:45:55.945Z,6.37
2018-07-14T07:48:24.125Z,5.87
2018-07-14T07:50:52.173Z,8.18
2018-07-14T07:53:20.236Z,6.15
2018-07-14T07:55:48.357Z,7.20
2018-07-14T07:58:16.529Z,7.33
2018-07-14T08:00:44.605Z,6.70
2018-07-14T08:03:12.656Z,6.62
2018-07-14T08:05:40.763Z,7.12
2018-07-14T08:08:08.856Z,6.50
2018-07-14T08:10:36.936Z,7.00
2018-07-14T08:13:05.072Z,6.33
2018-07-14T08:15:33.159Z,5.90
2018-07-14T08:18:01.583Z,5.45
2018-07-14T08:20:29.653Z,6.25
2018-07-14T08:22:57.902Z,5.70
2018-07-14T08:25:25.819Z,5.37
2018-07-14T08:27:53.892Z,6.15
2018-07-14T08:30:21.947Z,6.45
2018-07-14T08:32:50.028Z,6.00
2018-07-14T08:35:18.088Z,5.28
2018-07-14T08:37:46.144Z,5.37
2018-07-14T08:40:14.203Z,5.62
2018-07-14T08:42:42.261Z,6.85
2018-07-14T08:45:10.368Z,6.72
2018-07-14T08:47:38.407Z,6.55
2018-07-14T08:50:06.599Z,5.83
2018-07-14T08:52:34.644Z,5.97
2018-07-14T08:55:02.936Z,5.67
2018-07-14T08:57:31.012Z,6.05
2018-07-14T08:59:59.062Z,5.35
2018-07-14T09:02:27.116Z,7.60
2018-07-14T09:04:55.170Z,4.72
2018-07-14T09:07:23.263Z,6.30
2018-07-14T09:09:51.291Z,5.15
2018-07-14T09:12:19.385Z,6.37
2018-07-14T09:14:47.449Z,5.62
2018-07-14T09:17:15.480Z,5.40
2018-07-14T09:19:43.763Z,6.83
2018-07-14T09:22:11.828Z,5.25
2018-07-14T09:24:39.904Z,6.15
2018-07-14T09:27:07.979Z,6.75
2018-07-14T09:29:36.387Z,7.72
2018-07-14T09:32:04.427Z,5.90
2018-07-14T09:34:32.609Z,6.95
2018-07-14T09:37:01.111Z,6.55
2018-07-14T09:39:29.171Z,7.42
2018-07-14T09:41:57.264Z,5.58
2018-07-14T09:44:25.500Z,5.75
2018-07-14T09:46:53.540Z,6.72
2018-07-14T09:49:21.844Z,7.65
2018-07-14T09:51:49.915Z,7.42
2018-07-14T09:54:18.032Z,7.67
2018-07-14T09:56:46.051Z,6.95
2018-07-14T09:59:14.295Z,5.67
2018-07-14T10:01:42.351Z,6.25
2018-07-14T10:04:10.420Z,5.55
2018-07-14T10:06:38.488Z,7.10
2018-07-14T10:09:06.966Z,5.83
2018-07-14T10:11:35.255Z,6.00
2018-07-14T10:14:03.410Z,5.37
2018-07-14T10:16:31.640Z,7.83
2018-07-14T10:18:59.821Z,6.12
2018-07-14T10:21:27.964Z,8.43
2018-07-14T10:23:56.141Z,8.55
2018-07-14T10:26:24.420Z,7.33
2018-07-14T10:28:52.979Z,7.53
2018-07-14T10:31:21.127Z,7.92
2018-07-14T10:33:49.648Z,7.97
2018-07-14T10:36:18.139Z,8.55
2018-07-14T10:38:46.288Z,7.15
2018-07-14T10:41:14.295Z,9.35
2018-07-14T10:43:42.412Z,8.30
2018-07-14T10:46:10.504Z,7.12
2018-07-14T10:48:38.684Z,7.95
2018-07-14T10:51:06.748Z,8.05
2018-07-14T10:53:34.956Z,7.00
2018-07-14T10:56:03.039Z,7.67
2018-07-14T10:58:31.136Z,9.68
2018-07-14T11:00:59.296Z,8.38
2018-07-14T11:03:27.432Z,9.33
2018-07-14T11:05:55.739Z,6.85
2018-07-14T11:08:24.481Z,8.03
2018-07-14T11:10:53.116Z,9.03
2018-07-14T11:13:21.342Z,9.00
2018-07-14T11:15:49.647Z,9.43
2018-07-14T11:18:19.274Z,9.45
2018-07-14T11:20:47.542Z,8.68
2018-07-14T11:23:15.880Z,8.38
2018-07-14T11:25:44.014Z,8.58
2018-07-14T11:28:12.273Z,8.93
2018-07-14T11:30:40.467Z,8.05
2018-07-14T11:33:08.644Z,9.05
2018-07-14T11:35:36.895Z,8.33
2018-07-14T11:38:05.002Z,14.07
2018-07-14T11:40:33.212Z,11.95
2018-07-14T11:43:01.815Z,8.33
2018-07-14T11:45:30.125Z,8.23
2018-07-14T11:47:59.405Z,7.00
2018-07-14T11:50:27.859Z,7.65
2018-07-14T11:52:56.111Z,8.20
2018-07-14T11:55:24.577Z,9.20
2018-07-14T11:57:53.651Z,11.48
2018-07-14T12:00:22.298Z,9.30
2018-07-14T12:02:50.611Z,9.63
2018-07-14T12:05:19.365Z,8.70
2018-07-14T12:07:48.159Z,9.18
2018-07-14T12:10:16.279Z,9.65
2018-07-14T12:12:44.373Z,10.20
2018-07-14T12:15:12.436Z,12.55
2018-07-14T12:17:40.507Z,9.38
2018-07-14T12:20:16.741Z,10.15
2018-07-14T12:22:44.973Z,10.25
2018-07-14T12:25:13.068Z,11.38
2018-07-14T12:27:42.139Z,10.60
2018-07-14T12:30:10.299Z,10.23
2018-07-14T12:32:39.095Z,9.20
2018-07-14T12:35:07.562Z,10.55
2018-07-14T12:37:35.879Z,9.58
2018-07-14T12:40:04.131Z,10.03
2018-07-14T12:42:32.337Z,9.63
2018-07-14T12:45:00.766Z,10.60
2018-07-14T12:47:29.343Z,10.55
2018-07-14T12:49:57.996Z,10.68
2018-07-14T12:52:26.592Z,8.98
2018-07-14T12:54:55.184Z,10.95
2018-07-14T12:57:23.802Z,11.33
2018-07-14T12:59:53.348Z,9.25
2018-07-14T13:02:22.275Z,9.98
2018-07-14T13:04:50.491Z,9.90
2018-07-14T13:07:18.740Z,10.32
2018-07-14T13:09:46.808Z,9.80
2018-07-14T13:12:14.859Z,11.25
2018-07-14T13:14:42.973Z,10.98
2018-07-14T13:17:11.071Z,9.95
2018-07-14T13:19:39.172Z,10.23
2018-07-14T13:22:07.260Z,9.35
2018-07-14T13:24:35.321Z,10.23
2018-07-14T13:27:03.781Z,12.58
2018-07-14T13:29:32.089Z,8.28
2018-07-14T13:32:00.472Z,10.38
2018-07-14T13:34:28.966Z,8.85
2018-07-14T13:36:57.487Z,10.90
2018-07-14T13:39:26.215Z,9.18
2018-07-14T13:41:54.957Z,10.00
2018-07-14T13:44:23.667Z,9.23
2018-07-14T13:46:53.113Z,9.08
2018-07-14T13:49:22.091Z,7.83
2018-07-14T13:51:50.360Z,7.40
2018-07-14T13:54:18.560Z,9.48
2018-07-14T13:56:47.759Z,9.05
2018-07-14T13:59:16.142Z,12.10
2018-07-14T14:01:44.206Z,7.58
2018-07-14T14:04:12.270Z,7.00
2018-07-14T14:06:40.355Z,7.78
2018-07-14T14:09:08.776Z,8.75
2018-07-14T14:11:37.063Z,8.93
2018-07-14T14:14:05.332Z,8.95
2018-07-14T14:16:33.509Z,8.10
2018-07-14T14:19:01.725Z,7.95
2018-07-14T14:21:29.791Z,7.37
2018-07-14T14:24:01.393Z,7.03
2018-07-14T14:26:29.769Z,7.30
2018-07-14T14:28:59.943Z,7.33
2018-07-14T14:31:28.271Z,7.28
2018-07-14T14:33:56.337Z,8.50
2018-07-14T14:36:24.368Z,7.12
2018-07-14T14:38:52.421Z,10.40
2018-07-14T14:41:20.692Z,7.65
2018-07-14T14:43:48.929Z,7.37
2018-07-14T14:46:17.051Z,7.42
2018-07-14T14:48:45.089Z,7.60
2018-07-14T14:51:13.494Z,6.37
2018-07-14T14:53:41.588Z,7.72
2018-07-14T14:56:09.823Z,7.62
2018-07-14T14:58:37.846Z,6.70
2018-07-14T15:01:05.971Z,7.35
2018-07-14T15:03:34.164Z,6.35
2018-07-14T15:06:03.113Z,8.43
2018-07-14T15:08:31.370Z,7.17
2018-07-14T15:10:59.565Z,5.92
2018-07-14T15:13:27.959Z,5.75
2018-07-14T15:15:56.409Z,5.65
2018-07-14T15:18:24.903Z,5.83
2018-07-14T15:20:53.817Z,5.22
2018-07-14T15:23:23.620Z,5.28
2018-07-14T15:25:52.005Z,6.05
2018-07-14T15:28:20.188Z,6.95
2018-07-14T15:30:48.274Z,6.70
2018-07-14T15:33:16.521Z,7.20
2018-07-14T15:35:44.396Z,6.42
2018-07-14T15:38:13.079Z,6.05
2018-07-14T15:40:41.524Z,6.90
2018-07-14T15:43:09.580Z,6.05
2018-07-14T15:45:37.626Z,6.28
2018-07-14T15:48:06.241Z,7.50
2018-07-14T15:50:35.178Z,6.55
2018-07-14T15:53:03.523Z,5.80
2018-07-14T15:55:32.196Z,6.40
2018-07-14T15:58:00.487Z,7.83
2018-07-14T16:00:28.654Z,5.97
2018-07-14T16:02:56.840Z,5.37
2018-07-14T16:05:24.957Z,5.87
2018-07-14T16:07:53.385Z,7.30
2018-07-14T16:10:21.688Z,6.08
2018-07-14T16:12:49.874Z,5.00
2018-07-14T16:15:17.925Z,4.83
2018-07-14T16:17:46.013Z,5.15
2018-07-14T16:20:14.059Z,5.22
2018-07-14T16:22:42.108Z,5.53
2018-07-14T16:25:10.185Z,5.10
2018-07-14T16:27:38.255Z,5.15
2018-07-14T16:30:07.152Z,5.97
2018-07-14T16:32:35.268Z,5.87
2018-07-14T16:35:03.307Z,5.20
2018-07-14T16:37:31.460Z,6.83
2018-07-14T16:39:59.786Z,5.17
2018-07-14T16:42:28.026Z,6.78
2018-07-14T16:44:56.445Z,4.35
2018-07-14T16:47:24.856Z,5.60
2018-07-14T16:49:53.931Z,8.70
2018-07-14T16:52:23.158Z,5.22
2018-07-14T16:54:51.480Z,5.47
2018-07-14T16:57:19.575Z,4.75
2018-07-14T16:59:47.647Z,5.80
2018-07-14T17:02:15.707Z,5.75
2018-07-14T17:04:43.781Z,6.20
2018-07-14T17:07:12.450Z,4.75
2018-07-14T17:09:40.524Z,8.00
2018-07-14T17:12:08.834Z,4.92
2018-07-14T17:14:36.963Z,4.83
2018-07-14T17:17:05.125Z,5.42
2018-07-14T17:19:33.543Z,5.28
2018-07-14T17:22:01.916Z,5.00
2018-07-14T17:24:30.193Z,6.15
2018-07-14T17:26:58.815Z,4.85
2018-07-14T17:29:27.495Z,5.80
2018-07-14T17:31:56.424Z,5.10
2018-07-14T17:34:25.414Z,4.70
2018-07-14T17:36:53.964Z,5.30
2018-07-14T17:39:22.831Z,4.90
2018-07-14T17:41:51.119Z,5.05
2018-07-14T17:44:19.448Z,5.00
2018-07-14T17:46:47.826Z,6.20
2018-07-14T17:49:16.145Z,5.60
2018-07-14T17:51:44.258Z,4.97
2018-07-14T17:54:12.821Z,5.35
2018-07-14T17:56:40.924Z,8.08
2018-07-14T17:59:09.073Z,6.05
2018-07-14T18:01:37.120Z,7.17
2018-07-14T18:04:05.291Z,5.17
2018-07-14T18:06:33.364Z,10.13
2018-07-14T18:09:01.418Z,6.00
2018-07-14T18:11:29.512Z,6.10
2018-07-14T18:13:57.588Z,6.03
2018-07-14T18:16:25.756Z,5.80
2018-07-14T18:18:53.827Z,5.90
2018-07-14T18:21:21.959Z,5.53
2018-07-14T18:23:50.008Z,4.65
2018-07-14T18:26:18.845Z,5.47
2018-07-14T18:28:47.216Z,4.80
2018-07-14T18:31:15.279Z,5.65
2018-07-14T18:33:43.443Z,6.17
2018-07-14T18:36:12.003Z,4.55
2018-07-14T18:38:40.006Z,4.87
2018-07-14T18:41:08.062Z,5.00
2018-07-14T18:43:36.283Z,4.58
2018-07-14T18:46:04.521Z,4.40
2018-07-14T18:48:32.739Z,4.47
2018-07-14T18:51:01.280Z,4.75
2018-07-14T18:53:29.424Z,6.95
2018-07-14T18:55:57.564Z,4.45
2018-07-14T18:58:25.736Z,4.10
2018-07-14T19:00:54.075Z,7.15
2018-07-14T19:03:22.774Z,4.95
2018-07-14T19:05:51.087Z,3.70
2018-07-14T19:08:19.195Z,4.47
2018-07-14T19:10:47.305Z,4.47
2018-07-14T19:13:15.456Z,4.08
2018-07-14T19:15:43.591Z,4.28
2018-07-14T19:18:11.660Z,6.75
2018-07-14T19:20:39.709Z,5.72
2018-07-14T19:23:07.788Z,5.35
2018-07-14T19:25:35.913Z,6.35
2018-07-14T19:28:04.097Z,4.75
2018-07-14T19:30:32.572Z,5.28
2018-07-14T19:33:00.794Z,4.97
2018-07-14T19:35:28.959Z,4.80
2018-07-14T19:37:57.226Z,4.58
2018-07-14T19:40:25.894Z,4.30
2018-07-14T19:42:54.002Z,4.17
2018-07-14T19:45:22.166Z,6.78
2018-07-14T19:47:50.319Z,5.08
2018-07-14T19:50:18.584Z,4.65
2018-07-14T19:52:46.863Z,4.70
2018-07-14T19:55:15.147Z,4.83
2018-07-14T19:57:43.207Z,7.47
2018-07-14T20:00:11.563Z,4.95
2018-07-14T20:02:39.906Z,4.65
2018-07-14T20:05:08.034Z,5.00
2018-07-14T20:07:36.276Z,4.83
2018-07-14T20:10:04.488Z,6.37
2018-07-14T20:12:32.842Z,4.60
2018-07-14T20:15:01.080Z,5.15
2018-07-14T20:17:29.173Z,7.67
2018-07-14T20:19:57.328Z,5.53
2018-07-14T20:22:25.928Z,4.80
2018-07-14T20:24:54.540Z,4.53
2018-07-14T20:27:22.906Z,5.17
2018-07-14T20:29:51.647Z,5.15
2018-07-14T20:32:19.912Z,5.33
2018-07-14T20:34:48.062Z,4.95
2018-07-14T20:37:16.422Z,5.28
2018-07-14T20:39:44.753Z,5.22
2018-07-14T20:42:12.811Z,4.87
2018-07-14T20:44:40.948Z,4.65
2018-07-14T20:47:09.024Z,4.95
2018-07-14T20:49:37.187Z,5.42
2018-07-14T20:52:05.411Z,4.80
2018-07-14T20:54:33.514Z,5.10
2018-07-14T20:57:01.644Z,5.35
2018-07-14T20:59:30.636Z,5.60
2018-07-14T21:01:58.663Z,7.12
2018-07-14T21:04:26.843Z,5.58
2018-07-14T21:06:55.147Z,5.37
2018-07-14T21:09:23.199Z,6.83
2018-07-14T21:11:51.256Z,7.15
2018-07-14T21:14:19.455Z,5.40
2018-07-14T21:16:47.501Z,7.72
2018-07-14T21:19:15.572Z,5.53
2018-07-14T21:21:43.739Z,8.05
2018-07-14T21:24:11.788Z,6.17
2018-07-14T21:26:39.835Z,6.83
2018-07-14T21:29:07.896Z,5.80
2018-07-14T21:31:35.939Z,9.53
2018-07-14T21:34:04.263Z,5.75
2018-07-14T21:36:32.496Z,6.25
2018-07-14T21:39:00.760Z,6.47
2018-07-14T21:41:28.931Z,6.20
2018-07-14T21:43:57.097Z,5.87
2018-07-14T21:46:25.283Z,5.90
2018-07-14T21:48:53.589Z,6.55
2018-07-14T21:51:21.663Z,6.30
2018-07-14T21:53:49.723Z,6.17
2018-07-14T21:56:17.908Z,7.25
2018-07-14T21:58:46.077Z,6.15
2018-07-14T22:01:19.563Z,6.22
2018-07-14T22:03:47.620Z,6.37
2018-07-14T22:06:15.670Z,6.13
2018-07-14T22:08:43.835Z,7.67
2018-07-14T22:11:11.967Z,5.83
2018-07-14T22:13:41.088Z,5.90
2018-07-14T22:16:13.574Z,5.47
2018-07-14T22:18:41.636Z,6.23
2018-07-14T22:21:09.708Z,5.50
2018-07-14T22:23:41.121Z,6.57
2018-07-14T22:26:09.208Z,5.67
2018-07-14T22:28:37.651Z,5.33
2018-07-14T22:31:05.864Z,5.33
2018-07-14T22:33:34.844Z,7.17
2018-07-14T22:36:03.246Z,6.03
2018-07-14T22:38:31.300Z,5.77
2018-07-14T22:40:59.357Z,7.27
2018-07-14T22:43:27.440Z,5.37
2018-07-14T22:45:55.513Z,6.10
2018-07-14T22:48:23.616Z,6.00
2018-07-14T22:50:51.852Z,6.70
2018-07-14T22:53:19.911Z,8.97
2018-07-14T22:55:51.788Z,7.77
2018-07-14T22:58:19.875Z,6.77
2018-07-14T23:00:47.959Z,6.40
2018-07-14T23:03:15.988Z,6.40
2018-07-14T23:05:44.069Z,7.23
2018-07-14T23:08:12.176Z,6.63
2018-07-14T23:10:40.286Z,6.07
2018-07-14T23:13:08.332Z,6.83
2018-07-14T23:15:36.865Z,7.20
2018-07-14T23:18:05.071Z,7.20
2018-07-14T23:20:33.139Z,6.93
2018-07-14T23:23:01.211Z,7.27
2018-07-14T23:25:29.285Z,7.73
2018-07-14T23:27:57.376Z,6.90
2018-07-14T23:30:25.491Z,5.97
2018-07-14T23:32:53.576Z,6.00
2018-07-14T23:35:21.675Z,7.53
2018-07-14T23:37:49.736Z,6.10
2018-07-14T23:40:17.819Z,6.47
2018-07-14T23:42:48.424Z,6.27
2018-07-14T23:45:16.496Z,6.83
2018-07-14T23:47:44.564Z,6.37
2018-07-14T23:50:12.738Z,7.10
2018-07-14T23:52:40.828Z,7.37
2018-07-14T23:55:08.899Z,6.70
2018-07-14T23:57:36.955Z,7.30
